Terminal Aerodrome Forecast
Issued by NWS

Home | Current Version | Previous Version | Text Only | Print | Product List | Glossary On
Versions: 1 2 3 4 5 6 7 8 9 10 11 12 13 14 15
000
FTUS43 KJKL 270500
TAFSJS
TAF
KSJS 270521Z 2706/2806 00000KT P6SM SCT120
     FM270700 VRB04KT 3SM -RASN BR SCT015 OVC025
     FM271300 33006KT P6SM VCSH BKN015 OVC020
     FM271400 31005KT P6SM BKN015
     FM271700 29007KT P6SM BKN035=

USA.gov is the U.S. government's official web portal to all federal, state and local government web resources and services.